createdAt,value
2022-11-07T00:01:20.557Z,12.20
2022-11-07T00:03:47.354Z,12.20
2022-11-07T00:06:14.060Z,12.30
2022-11-07T00:08:40.701Z,12.30
2022-11-07T00:11:08.078Z,12.30
2022-11-07T00:13:34.797Z,12.30
2022-11-07T00:16:08.458Z,12.30
2022-11-07T00:18:35.882Z,12.30
2022-11-07T00:21:08.044Z,12.30
2022-11-07T00:23:35.239Z,12.30
2022-11-07T00:26:06.979Z,12.40
2022-11-07T00:28:34.330Z,12.30
2022-11-07T00:31:01.192Z,12.30
2022-11-07T00:33:27.948Z,12.30
2022-11-07T00:35:54.901Z,12.30
2022-11-07T00:38:21.599Z,12.30
2022-11-07T00:40:59.372Z,12.30
2022-11-07T00:43:26.679Z,12.20
2022-11-07T00:45:53.628Z,12.20
2022-11-07T00:48:20.650Z,12.20
2022-11-07T00:50:48.035Z,12.20
2022-11-07T00:53:15.165Z,12.20
2022-11-07T00:55:42.081Z,12.20
2022-11-07T00:58:13.617Z,12.20
2022-11-07T01:00:41.628Z,12.20
2022-11-07T01:03:27.396Z,12.20
2022-11-07T01:05:59.038Z,12.20
2022-11-07T01:08:25.983Z,12.20
2022-11-07T01:10:55.323Z,12.20
2022-11-07T01:13:22.756Z,12.20
2022-11-07T01:15:49.767Z,12.20
2022-11-07T01:18:16.446Z,12.20
2022-11-07T01:20:43.374Z,12.20
2022-11-07T01:23:10.273Z,12.20
2022-11-07T01:25:38.916Z,12.30
2022-11-07T01:28:06.546Z,12.30
2022-11-07T01:30:33.554Z,12.20
2022-11-07T01:33:00.328Z,12.20
2022-11-07T01:35:27.032Z,12.20
2022-11-07T01:37:53.711Z,12.20
2022-11-07T01:40:20.746Z,12.20
2022-11-07T01:42:47.482Z,12.20
2022-11-07T01:45:21.254Z,12.20
2022-11-07T01:47:49.306Z,12.20
2022-11-07T01:50:16.834Z,12.20
2022-11-07T01:52:46.602Z,12.20
2022-11-07T01:55:21.236Z,12.20
2022-11-07T01:58:08.970Z,12.20
2022-11-07T02:00:37.056Z,12.20
2022-11-07T02:03:11.600Z,12.20
2022-11-07T02:05:43.741Z,12.20
2022-11-07T02:08:11.689Z,12.20
2022-11-07T02:10:40.314Z,12.20
2022-11-07T02:13:08.436Z,12.20
2022-11-07T02:15:36.637Z,12.20
2022-11-07T02:18:03.837Z,12.20
2022-11-07T02:20:30.631Z,12.20
2022-11-07T02:23:14.892Z,12.20
2022-11-07T02:25:41.860Z,12.30
2022-11-07T02:28:10.332Z,12.20
2022-11-07T02:30:39.021Z,12.30
2022-11-07T02:33:20.842Z,12.20
2022-11-07T02:35:48.480Z,12.20
2022-11-07T02:38:48.845Z,12.30
2022-11-07T02:41:27.388Z,12.20
2022-11-07T02:44:06.975Z,12.30
2022-11-07T02:46:33.960Z,12.30
2022-11-07T02:49:01.846Z,12.30
2022-11-07T02:51:29.087Z,12.30
2022-11-07T02:53:55.948Z,12.30
2022-11-07T02:56:23.233Z,12.30
2022-11-07T02:58:52.449Z,12.30
2022-11-07T03:01:20.118Z,12.20
2022-11-07T03:03:51.263Z,12.30
2022-11-07T03:06:21.743Z,12.30
2022-11-07T03:08:48.537Z,12.20
2022-11-07T03:11:19.670Z,12.30
2022-11-07T03:13:48.031Z,12.20
2022-11-07T03:16:15.258Z,12.20
2022-11-07T03:18:41.936Z,12.20
2022-11-07T03:21:08.794Z,12.20
2022-11-07T03:23:36.264Z,12.20
2022-11-07T03:26:03.712Z,12.20
2022-11-07T03:28:30.418Z,12.20
2022-11-07T03:31:03.859Z,12.20
2022-11-07T03:33:30.998Z,12.20
2022-11-07T03:35:57.703Z,12.30
2022-11-07T03:38:24.375Z,12.20
2022-11-07T03:40:51.303Z,12.30
2022-11-07T03:43:18.125Z,12.20
2022-11-07T03:45:44.775Z,12.20
2022-11-07T03:48:11.582Z,12.30
2022-11-07T03:50:38.453Z,12.30
2022-11-07T03:53:05.090Z,12.30
2022-11-07T03:55:31.769Z,12.30
2022-11-07T03:57:58.414Z,12.30
2022-11-07T04:00:25.160Z,12.30
2022-11-07T04:02:52.062Z,12.30
2022-11-07T04:05:18.898Z,12.30
2022-11-07T04:07:45.547Z,12.30
2022-11-07T04:10:12.470Z,12.30
2022-11-07T04:12:57.594Z,12.30
2022-11-07T04:15:42.975Z,12.30
2022-11-07T04:18:09.778Z,12.30
2022-11-07T04:20:36.583Z,12.30
2022-11-07T04:23:03.308Z,12.30
2022-11-07T04:25:48.514Z,12.40
2022-11-07T04:28:17.743Z,12.30
2022-11-07T04:30:44.750Z,12.30
2022-11-07T04:33:11.611Z,12.40
2022-11-07T04:35:38.413Z,12.30
2022-11-07T04:38:05.123Z,12.40
2022-11-07T04:40:32.044Z,12.40
2022-11-07T04:42:58.825Z,12.40
2022-11-07T04:45:25.527Z,12.40
2022-11-07T04:47:52.573Z,12.40
2022-11-07T04:50:20.516Z,12.40
2022-11-07T04:52:48.198Z,12.40
2022-11-07T04:55:23.943Z,12.40
2022-11-07T04:57:51.093Z,12.40
2022-11-07T05:00:19.088Z,12.50
2022-11-07T05:02:46.598Z,12.40
2022-11-07T05:05:13.492Z,12.50
2022-11-07T05:07:40.595Z,12.40
2022-11-07T05:10:12.305Z,12.50
2022-11-07T05:12:39.200Z,12.50
2022-11-07T05:15:07.200Z,12.50
2022-11-07T05:17:33.908Z,12.50
2022-11-07T05:20:00.742Z,12.50
2022-11-07T05:22:45.751Z,12.50
2022-11-07T05:25:12.520Z,12.50
2022-11-07T05:27:39.184Z,12.50
2022-11-07T05:30:07.044Z,12.50
2022-11-07T05:32:38.208Z,12.50
2022-11-07T05:35:05.754Z,12.50
2022-11-07T05:37:32.480Z,12.50
2022-11-07T05:39:59.288Z,12.50
2022-11-07T05:42:25.927Z,12.50
2022-11-07T05:44:52.557Z,12.50
2022-11-07T05:47:19.409Z,12.50
2022-11-07T05:49:46.235Z,12.60
2022-11-07T05:52:13.027Z,12.60
2022-11-07T05:54:39.708Z,12.60
2022-11-07T05:57:06.477Z,12.60
2022-11-07T05:59:33.171Z,12.70
2022-11-07T06:01:59.904Z,12.60
2022-11-07T06:04:26.594Z,12.60
2022-11-07T06:06:53.238Z,12.70
2022-11-07T06:09:19.944Z,12.70
2022-11-07T06:11:46.607Z,12.70
2022-11-07T06:14:13.275Z,12.70
2022-11-07T06:16:40.060Z,12.70
2022-11-07T06:19:06.907Z,12.70
2022-11-07T06:21:34.975Z,12.70
2022-11-07T06:24:01.904Z,12.70
2022-11-07T06:26:28.663Z,12.80
2022-11-07T06:28:55.421Z,12.70
2022-11-07T06:31:22.138Z,12.70
2022-11-07T06:33:52.466Z,12.70
2022-11-07T06:36:19.216Z,12.70
2022-11-07T06:38:45.995Z,12.70
2022-11-07T06:41:15.174Z,12.70
2022-11-07T06:43:42.102Z,12.70
2022-11-07T06:46:11.912Z,12.70
2022-11-07T06:48:39.294Z,12.60
2022-11-07T06:51:07.819Z,12.60
2022-11-07T06:53:34.768Z,12.60
2022-11-07T06:56:03.653Z,12.60
2022-11-07T06:58:30.788Z,12.60
2022-11-07T07:01:05.814Z,12.60
2022-11-07T07:03:32.557Z,12.60
2022-11-07T07:06:04.205Z,12.60
2022-11-07T07:08:31.122Z,12.60
2022-11-07T07:11:06.289Z,12.60
2022-11-07T07:13:33.440Z,12.60
2022-11-07T07:16:00.572Z,12.60
2022-11-07T07:18:27.763Z,12.60
2022-11-07T07:21:08.759Z,12.60
2022-11-07T07:23:35.956Z,12.60
2022-11-07T07:26:04.501Z,12.60
2022-11-07T07:28:31.501Z,12.70
2022-11-07T07:31:14.942Z,12.70
2022-11-07T07:33:42.224Z,12.70
2022-11-07T07:36:09.711Z,12.70
2022-11-07T07:38:36.663Z,12.80
2022-11-07T07:41:04.171Z,12.80
2022-11-07T07:43:31.586Z,12.80
2022-11-07T07:46:03.285Z,12.80
2022-11-07T07:48:31.098Z,12.80
2022-11-07T07:50:58.633Z,12.90
2022-11-07T07:53:25.322Z,12.90
2022-11-07T07:55:57.841Z,13.00
2022-11-07T07:58:25.315Z,13.00
2022-11-07T08:00:59.128Z,13.00
2022-11-07T08:03:32.231Z,13.10
2022-11-07T08:06:06.874Z,13.10
2022-11-07T08:08:37.969Z,13.20
2022-11-07T08:11:08.541Z,13.20
2022-11-07T08:13:36.085Z,13.20
2022-11-07T08:16:05.139Z,13.30
2022-11-07T08:18:31.812Z,13.30
2022-11-07T08:20:58.611Z,13.30
2022-11-07T08:23:25.480Z,13.30
2022-11-07T08:25:57.553Z,13.30
2022-11-07T08:28:27.493Z,13.40
2022-11-07T08:31:13.224Z,13.40
2022-11-07T08:33:40.305Z,13.40
2022-11-07T08:36:07.843Z,13.40
2022-11-07T08:38:35.813Z,13.50
2022-11-07T08:41:03.629Z,13.50
2022-11-07T08:43:30.768Z,13.50
2022-11-07T08:45:57.476Z,13.50
2022-11-07T08:48:24.706Z,13.50
2022-11-07T08:50:53.614Z,13.50
2022-11-07T08:53:20.980Z,13.60
2022-11-07T08:55:51.255Z,13.70
2022-11-07T08:58:19.162Z,13.70
2022-11-07T09:00:46.384Z,13.80
2022-11-07T09:06:01.796Z,13.80
2022-11-07T09:08:28.744Z,13.80
2022-11-07T09:10:55.467Z,13.80
2022-11-07T09:13:22.230Z,13.80
2022-11-07T09:15:51.384Z,13.80
2022-11-07T09:18:19.122Z,13.80
2022-11-07T09:20:45.959Z,13.80
2022-11-07T09:23:12.843Z,13.80
2022-11-07T09:25:39.616Z,13.70
2022-11-07T09:28:06.490Z,13.80
2022-11-07T09:30:33.467Z,13.80
2022-11-07T09:33:00.389Z,13.80
2022-11-07T09:35:27.488Z,13.80
2022-11-07T09:37:54.357Z,13.80
2022-11-07T09:40:41.798Z,13.90
2022-11-07T09:43:14.872Z,13.90
2022-11-07T09:45:54.995Z,14.00
2022-11-07T09:48:26.080Z,14.00
2022-11-07T09:50:53.101Z,14.00
2022-11-07T09:53:34.106Z,14.00
2022-11-07T09:56:05.194Z,14.10
2022-11-07T09:58:36.632Z,14.10
2022-11-07T10:01:06.390Z,14.10
2022-11-07T10:03:38.298Z,14.20
2022-11-07T10:06:17.043Z,14.40
2022-11-07T10:09:15.053Z,14.50
2022-11-07T10:12:01.107Z,14.70
2022-11-07T10:14:42.451Z,14.80
2022-11-07T10:17:28.451Z,14.90
2022-11-07T10:20:07.187Z,14.90
2022-11-07T10:22:49.831Z,14.80
2022-11-07T10:25:24.881Z,14.80
2022-11-07T10:28:08.615Z,14.70
2022-11-07T10:30:35.606Z,14.70
2022-11-07T10:33:16.871Z,14.70
2022-11-07T10:36:01.448Z,14.70
2022-11-07T10:38:30.280Z,14.70
2022-11-07T10:41:02.258Z,14.60
2022-11-07T10:43:34.299Z,14.60
2022-11-07T10:46:11.228Z,14.60
2022-11-07T10:48:52.381Z,14.60
2022-11-07T10:51:19.175Z,14.60
2022-11-07T10:53:46.268Z,14.60
2022-11-07T10:56:19.413Z,14.50
2022-11-07T10:58:46.802Z,14.50
2022-11-07T11:01:14.078Z,14.50
2022-11-07T11:03:45.747Z,14.50
2022-11-07T11:06:20.357Z,14.50
2022-11-07T11:08:48.828Z,14.50
2022-11-07T11:11:21.629Z,14.40
2022-11-07T11:13:49.052Z,14.50
2022-11-07T11:16:30.687Z,14.50
2022-11-07T11:19:02.231Z,14.60
2022-11-07T11:21:43.491Z,14.60
2022-11-07T11:24:37.259Z,14.60
2022-11-07T11:27:17.610Z,14.70
2022-11-07T11:30:01.790Z,14.70
2022-11-07T11:32:51.776Z,14.70
2022-11-07T11:35:30.985Z,14.70
2022-11-07T11:38:04.612Z,14.80
2022-11-07T11:40:42.831Z,14.70
2022-11-07T11:43:21.157Z,14.70
2022-11-07T11:46:00.616Z,14.70
2022-11-07T11:48:43.995Z,14.80
2022-11-07T11:51:23.693Z,14.70
2022-11-07T11:53:50.803Z,14.70
2022-11-07T11:56:39.374Z,14.70
2022-11-07T11:59:23.379Z,14.80
2022-11-07T12:02:12.960Z,14.80
2022-11-07T12:05:05.889Z,14.80
2022-11-07T12:07:45.890Z,14.80
2022-11-07T12:10:35.149Z,14.90
2022-11-07T12:13:26.671Z,14.80
2022-11-07T12:16:25.288Z,14.80
2022-11-07T12:19:16.002Z,14.80
2022-11-07T12:22:27.359Z,14.90
2022-11-07T12:24:54.019Z,14.90
2022-11-07T12:27:29.279Z,14.90
2022-11-07T12:30:20.392Z,14.90
2022-11-07T12:32:57.796Z,14.90
2022-11-07T12:35:51.364Z,15.00
2022-11-07T12:38:41.185Z,15.00
2022-11-07T12:41:20.782Z,15.00
2022-11-07T12:43:53.010Z,15.00
2022-11-07T12:46:43.571Z,15.00
2022-11-07T12:49:13.285Z,15.00
2022-11-07T12:52:11.068Z,15.00
2022-11-07T12:54:46.362Z,15.00
2022-11-07T12:57:17.983Z,15.00
2022-11-07T12:59:47.352Z,15.00
2022-11-07T13:02:50.719Z,15.00
2022-11-07T13:05:42.105Z,15.00
2022-11-07T13:08:20.751Z,15.00
2022-11-07T13:11:19.964Z,15.00
2022-11-07T13:14:26.828Z,15.10
2022-11-07T13:17:12.782Z,15.10
2022-11-07T13:19:44.734Z,15.10
2022-11-07T13:22:17.521Z,15.10
2022-11-07T13:25:17.045Z,15.10
2022-11-07T13:27:46.930Z,15.10
2022-11-07T13:30:13.661Z,15.10
2022-11-07T13:32:45.322Z,15.20
2022-11-07T13:35:30.615Z,15.20
2022-11-07T13:37:59.067Z,15.20
2022-11-07T13:40:33.448Z,15.10
2022-11-07T13:43:10.634Z,15.20
2022-11-07T13:45:50.768Z,15.20
2022-11-07T13:48:24.029Z,15.10
2022-11-07T13:51:10.206Z,15.20
2022-11-07T13:53:47.971Z,15.10
2022-11-07T13:56:33.919Z,15.10
2022-11-07T13:59:04.381Z,15.00
2022-11-07T14:01:43.280Z,15.00
2022-11-07T14:04:20.307Z,15.00
2022-11-07T14:06:47.830Z,15.00
2022-11-07T14:09:18.675Z,15.00
2022-11-07T14:11:47.008Z,15.00
2022-11-07T14:14:14.050Z,15.00
2022-11-07T14:16:45.466Z,14.90
2022-11-07T14:19:28.377Z,14.90
2022-11-07T14:21:56.026Z,14.90
2022-11-07T14:24:28.589Z,14.90
2022-11-07T14:27:14.182Z,14.90
2022-11-07T14:29:51.361Z,14.90
2022-11-07T14:32:18.248Z,14.90
2022-11-07T14:34:47.184Z,14.80
2022-11-07T14:37:16.991Z,14.80
2022-11-07T14:39:44.487Z,14.80
2022-11-07T14:42:19.205Z,14.80
2022-11-07T14:44:55.455Z,14.80
2022-11-07T14:47:33.913Z,14.80
2022-11-07T14:50:02.121Z,14.80
2022-11-07T14:53:00.024Z,14.80
2022-11-07T14:55:33.296Z,14.80
2022-11-07T14:58:05.407Z,14.80
2022-11-07T15:00:34.526Z,14.70
2022-11-07T15:03:01.519Z,14.70
2022-11-07T15:05:31.726Z,14.70
2022-11-07T15:07:59.959Z,14.70
2022-11-07T15:10:36.666Z,14.70
2022-11-07T15:13:21.114Z,14.70
2022-11-07T15:16:28.524Z,14.60
2022-11-07T15:19:01.714Z,14.70
2022-11-07T15:21:50.703Z,14.60
2022-11-07T15:24:32.334Z,14.60
2022-11-07T15:27:18.500Z,14.60
2022-11-07T15:30:02.065Z,14.60
2022-11-07T15:32:37.569Z,14.60
2022-11-07T15:35:42.612Z,14.60
2022-11-07T15:38:02.287Z,14.60
2022-11-07T15:40:32.015Z,14.60
2022-11-07T15:42:58.710Z,14.60
2022-11-07T15:45:25.665Z,14.60
2022-11-07T15:47:52.580Z,14.60
2022-11-07T15:50:24.731Z,14.60
2022-11-07T15:52:54.184Z,14.60
2022-11-07T15:55:23.245Z,14.60
2022-11-07T15:57:52.067Z,14.60
2022-11-07T16:00:24.664Z,14.60
2022-11-07T16:02:51.915Z,14.60
2022-11-07T16:05:19.272Z,14.60
2022-11-07T16:07:48.648Z,14.60
2022-11-07T16:10:25.905Z,14.70
2022-11-07T16:12:53.617Z,14.70
2022-11-07T16:15:23.514Z,14.70
2022-11-07T16:17:50.553Z,14.70
2022-11-07T16:20:22.639Z,14.70
2022-11-07T16:22:50.509Z,14.70
2022-11-07T16:25:22.349Z,14.70
2022-11-07T16:28:00.396Z,14.70
2022-11-07T16:30:28.103Z,14.80
2022-11-07T16:32:56.117Z,14.80
2022-11-07T16:35:22.802Z,14.80
2022-11-07T16:37:51.973Z,14.90
2022-11-07T16:40:19.659Z,14.90
2022-11-07T16:42:47.444Z,14.90
2022-11-07T16:45:17.154Z,15.00
2022-11-07T16:47:44.124Z,15.00
2022-11-07T16:50:16.570Z,15.00
2022-11-07T16:52:45.865Z,15.00
2022-11-07T16:55:17.633Z,15.00
2022-11-07T16:57:45.331Z,15.00
2022-11-07T17:00:20.624Z,15.00
2022-11-07T17:02:47.893Z,15.00
2022-11-07T17:05:15.090Z,15.00
2022-11-07T17:07:41.967Z,15.00
2022-11-07T17:10:15.099Z,15.10
2022-11-07T17:12:41.820Z,15.10
2022-11-07T17:15:09.168Z,15.10
2022-11-07T17:17:36.033Z,15.10
2022-11-07T17:20:02.812Z,15.10
2022-11-07T17:22:29.503Z,15.10
2022-11-07T17:24:56.211Z,15.10
2022-11-07T17:27:25.039Z,15.10
2022-11-07T17:29:53.253Z,15.20
2022-11-07T17:32:20.021Z,15.10
2022-11-07T17:34:55.021Z,15.10
2022-11-07T17:37:31.320Z,15.10
2022-11-07T17:39:58.045Z,15.10
2022-11-07T17:42:24.903Z,15.20
2022-11-07T17:44:56.316Z,15.10
2022-11-07T17:47:34.466Z,15.20
2022-11-07T17:50:04.364Z,15.20
2022-11-07T17:52:31.079Z,15.20
2022-11-07T17:55:00.274Z,15.10
2022-11-07T17:57:34.201Z,15.10
2022-11-07T18:00:02.482Z,15.10
2022-11-07T18:02:31.871Z,15.20
2022-11-07T18:05:01.076Z,15.10
2022-11-07T18:07:33.911Z,15.10
2022-11-07T18:10:02.100Z,15.10
2022-11-07T18:12:31.620Z,15.10
2022-11-07T18:15:04.055Z,15.10
2022-11-07T18:17:30.912Z,15.10
2022-11-07T18:20:00.376Z,15.10
2022-11-07T18:22:29.757Z,15.10
2022-11-07T18:25:01.460Z,15.10
2022-11-07T18:27:30.302Z,15.10
2022-11-07T18:29:57.132Z,15.10
2022-11-07T18:32:27.655Z,15.10
2022-11-07T18:34:57.039Z,15.10
2022-11-07T18:37:25.986Z,15.10
2022-11-07T18:39:55.414Z,15.10
2022-11-07T18:42:24.463Z,15.00
2022-11-07T18:44:51.194Z,15.00
2022-11-07T18:47:18.111Z,15.00
2022-11-07T18:49:47.234Z,15.00
2022-11-07T18:52:16.785Z,15.00
2022-11-07T18:54:46.558Z,15.00
2022-11-07T18:57:13.244Z,15.00
2022-11-07T18:59:40.132Z,15.00
2022-11-07T19:02:06.907Z,15.00
2022-11-07T19:04:36.701Z,15.00
2022-11-07T19:07:03.466Z,15.00
2022-11-07T19:09:32.427Z,15.00
2022-11-07T19:12:02.523Z,15.00
2022-11-07T19:14:29.920Z,15.00
2022-11-07T19:16:57.663Z,15.00
2022-11-07T19:19:26.766Z,15.00
2022-11-07T19:21:58.158Z,15.00
2022-11-07T19:24:30.420Z,14.90
2022-11-07T19:27:00.948Z,15.00
2022-11-07T19:29:30.889Z,14.90
2022-11-07T19:32:00.158Z,14.90
2022-11-07T19:34:30.583Z,14.90
2022-11-07T19:36:57.349Z,14.90
2022-11-07T19:39:26.695Z,14.90
2022-11-07T19:41:53.494Z,14.90
2022-11-07T19:44:20.390Z,14.90
2022-11-07T19:46:49.718Z,14.90
2022-11-07T19:49:16.508Z,14.90
2022-11-07T19:51:43.190Z,14.90
2022-11-07T19:54:09.947Z,14.90
2022-11-07T19:56:36.784Z,14.90
2022-11-07T19:59:03.696Z,14.90
2022-11-07T20:01:35.111Z,14.90
2022-11-07T20:04:02.385Z,14.90
2022-11-07T20:06:39.018Z,14.90
2022-11-07T20:09:09.226Z,14.90
2022-11-07T20:11:36.679Z,14.90
2022-11-07T20:14:06.502Z,14.90
2022-11-07T20:16:34.435Z,14.90
2022-11-07T20:19:02.184Z,15.00
2022-11-07T20:21:30.256Z,15.00
2022-11-07T20:23:59.371Z,15.00
2022-11-07T20:26:30.565Z,14.90
2022-11-07T20:28:58.231Z,14.90
2022-11-07T20:31:28.077Z,15.00
2022-11-07T20:33:59.074Z,15.00
2022-11-07T20:36:26.575Z,15.00
2022-11-07T20:39:00.805Z,15.00
2022-11-07T20:41:28.241Z,14.90
2022-11-07T20:44:01.343Z,15.00
2022-11-07T20:46:28.530Z,15.00
2022-11-07T20:48:59.514Z,15.00
2022-11-07T20:51:26.754Z,15.00
2022-11-07T20:53:54.619Z,15.00
2022-11-07T20:56:26.568Z,15.00
2022-11-07T20:58:57.108Z,15.00
2022-11-07T21:01:27.343Z,15.00
2022-11-07T21:03:57.005Z,15.00
2022-11-07T21:06:23.784Z,15.00
2022-11-07T21:08:50.565Z,15.00
2022-11-07T21:11:17.664Z,15.00
2022-11-07T21:13:51.224Z,15.00
2022-11-07T21:16:21.090Z,15.00
2022-11-07T21:18:48.344Z,15.00
2022-11-07T21:21:20.193Z,15.00
2022-11-07T21:23:47.908Z,15.10
2022-11-07T21:26:21.449Z,15.10
2022-11-07T21:28:48.354Z,15.10
2022-11-07T21:31:18.712Z,15.00
2022-11-07T21:33:48.181Z,15.00
2022-11-07T21:36:17.414Z,15.00
2022-11-07T21:38:45.064Z,15.10
2022-11-07T21:41:12.343Z,15.00
2022-11-07T21:43:39.443Z,15.00
2022-11-07T21:46:18.519Z,15.00
2022-11-07T21:48:46.122Z,15.00
2022-11-07T21:51:25.148Z,14.90
2022-11-07T21:53:52.354Z,14.90
2022-11-07T21:56:24.553Z,14.90
2022-11-07T21:58:59.143Z,14.80
2022-11-07T22:01:26.977Z,14.80
2022-11-07T22:04:10.971Z,14.80
2022-11-07T22:06:44.066Z,14.80
2022-11-07T22:09:14.225Z,14.80
2022-11-07T22:11:41.157Z,14.70
2022-11-07T22:14:09.247Z,14.80
2022-11-07T22:16:36.283Z,14.80
2022-11-07T22:19:05.189Z,14.80
2022-11-07T22:21:34.743Z,14.80
2022-11-07T22:24:01.477Z,14.80
2022-11-07T22:26:28.894Z,14.80
2022-11-07T22:28:56.230Z,14.80
2022-11-07T22:31:25.560Z,14.80
2022-11-07T22:33:53.979Z,14.80
2022-11-07T22:36:21.468Z,14.80
2022-11-07T22:38:48.511Z,14.80
2022-11-07T22:41:18.724Z,14.80
2022-11-07T22:43:45.555Z,14.80
2022-11-07T22:46:16.656Z,14.80
2022-11-07T22:48:44.807Z,14.70
2022-11-07T22:51:15.088Z,14.70
2022-11-07T22:53:41.951Z,14.70
2022-11-07T22:56:12.500Z,14.70
2022-11-07T22:58:40.313Z,14.60
2022-11-07T23:01:17.170Z,14.60
2022-11-07T23:03:44.384Z,14.60
2022-11-07T23:06:11.742Z,14.50
2022-11-07T23:08:38.629Z,14.50
2022-11-07T23:11:44.095Z,14.50
2022-11-07T23:14:05.650Z,14.50
2022-11-07T23:16:34.996Z,14.40
2022-11-07T23:19:04.868Z,14.40
2022-11-07T23:21:32.212Z,14.40
2022-11-07T23:24:00.110Z,14.30
2022-11-07T23:26:34.994Z,14.30
2022-11-07T23:29:10.509Z,14.30
2022-11-07T23:31:39.508Z,14.30
2022-11-07T23:34:07.011Z,14.20
2022-11-07T23:36:33.720Z,14.20
2022-11-07T23:39:06.042Z,14.20
2022-11-07T23:41:33.179Z,14.10
2022-11-07T23:44:00.183Z,14.10
2022-11-07T23:46:46.569Z,14.10
2022-11-07T23:49:32.060Z,14.10
2022-11-07T23:51:58.787Z,14.00
2022-11-07T23:55:00.787Z,14.00
2022-11-07T23:57:27.413Z,14.00
